Time;durP1;ratioP1;P1;durP2;ratioP2;P2;SDS_P1;SDS_P2;PMS_P1;PMS_P2;Temp;Humidity;BMP_temperature;BMP_pressure;BME280_temperature;BME280_humidity;BME280_pressure;Samples;Min_cycle;Max_cycle;Signal;HPM_P1;HPM_P2
2021/08/18 00:00:58;;;;;;;5.13;2.97;;;16.90;99.90;;;;;;5056149;28;20033;-86
2021/08/18 00:03:28;;;;;;;10.05;4.05;;;17.00;99.90;;;;;;5057919;28;20044;-86
2021/08/18 00:05:56;;;;;;;7.10;3.20;;;17.00;99.90;;;;;;5072698;28;20412;-85
2021/08/18 00:08:25;;;;;;;8.88;3.58;;;17.00;99.90;;;;;;5068307;28;20071;-87
2021/08/18 00:10:59;;;;;;;25.85;4.45;;;16.90;99.90;;;;;;5058274;28;20049;-86
2021/08/18 00:13:28;;;;;;;7.88;3.60;;;16.90;99.90;;;;;;5037599;28;20048;-86
2021/08/18 00:16:00;;;;;;;6.47;3.40;;;16.90;99.90;;;;;;5051858;28;20514;-88
2021/08/18 00:18:30;;;;;;;8.25;3.55;;;16.90;99.90;;;;;;5060452;28;20091;-87
2021/08/18 00:21:00;;;;;;;7.53;3.88;;;16.90;99.90;;;;;;5042628;28;20064;-86
2021/08/18 00:23:36;;;;;;;9.85;5.05;;;16.90;99.90;;;;;;5059663;28;20041;-86
2021/08/18 00:26:05;;;;;;;6.07;3.47;;;16.80;99.90;;;;;;5036800;28;20503;-86
2021/08/18 00:28:33;;;;;;;9.10;3.83;;;16.90;99.90;;;;;;5041418;28;20052;-88
2021/08/18 00:31:05;;;;;;;10.82;4.40;;;16.80;99.90;;;;;;5056878;28;20049;-86
2021/08/18 00:33:35;;;;;;;9.30;3.83;;;16.80;99.90;;;;;;5052009;28;20053;-86
2021/08/18 00:36:04;;;;;;;12.15;5.60;;;16.00;99.90;;;;;;5021742;28;20050;-89
2021/08/18 00:38:42;;;;;;;15.55;5.53;;;16.80;99.90;;;;;;5057260;28;20053;-86
2021/08/18 00:41:12;;;;;;;14.77;5.35;;;16.70;99.90;;;;;;5057528;28;20056;-86
2021/08/18 00:43:44;;;;;;;10.88;4.93;;;16.70;99.90;;;;;;5043405;28;20037;-88
2021/08/18 00:46:12;;;;;;;33.17;6.55;;;16.70;99.90;;;;;;5057267;28;20056;-86
2021/08/18 00:48:40;;;;;;;10.68;4.50;;;16.70;99.90;;;;;;5058924;28;20048;-87
2021/08/18 00:51:15;;;;;;;8.73;4.65;;;16.70;99.90;;;;;;5076974;28;20053;-87
2021/08/18 00:53:45;;;;;;;8.25;4.65;;;16.70;99.90;;;;;;5043404;28;20049;-87
2021/08/18 00:56:14;;;;;;;8.35;4.28;;;16.60;99.90;;;;;;5067568;28;20049;-88
2021/08/18 00:58:42;;;;;;;14.00;5.78;;;16.70;99.90;;;;;;5062759;28;20072;-88
2021/08/18 01:01:10;;;;;;;10.60;4.90;;;16.60;99.90;;;;;;5061998;28;20056;-87
2021/08/18 01:03:41;;;;;;;11.10;5.40;;;16.60;99.90;;;;;;5047290;28;20055;-87
2021/08/18 01:06:11;;;;;;;8.88;4.68;;;16.60;99.90;;;;;;5062375;28;20056;-88
2021/08/18 01:08:39;;;;;;;12.20;5.25;;;16.60;99.90;;;;;;5069125;28;20060;-88
2021/08/18 01:11:10;;;;;;;13.43;5.65;;;16.60;99.90;;;;;;5046001;28;20236;-89
2021/08/18 01:13:40;;;;;;;12.68;5.40;;;16.60;99.90;;;;;;5048815;28;20044;-89
2021/08/18 01:16:08;;;;;;;9.73;5.15;;;16.60;99.90;;;;;;5065141;28;20053;-87
2021/08/18 01:18:37;;;;;;;9.57;4.60;;;16.60;99.90;;;;;;5064249;28;20041;-91
2021/08/18 01:21:08;;;;;;;8.43;4.47;;;16.60;99.90;;;;;;5057616;28;20053;-87
2021/08/18 01:23:37;;;;;;;8.77;4.20;;;16.60;99.90;;;;;;5028040;28;20057;-85
2021/08/18 01:26:09;;;;;;;9.55;5.35;;;16.60;99.90;;;;;;5072224;28;20068;-87
2021/08/18 01:28:37;;;;;;;12.68;4.43;;;16.50;99.90;;;;;;5064756;28;20041;-86
2021/08/18 01:31:06;;;;;;;10.32;4.82;;;16.60;99.90;;;;;;5063881;28;20049;-88
2021/08/18 01:33:35;;;;;;;9.15;4.60;;;16.50;99.90;;;;;;5045627;28;20049;-87
2021/08/18 01:36:03;;;;;;;12.93;4.88;;;16.60;99.90;;;;;;5063415;28;20053;-87
2021/08/18 01:38:31;;;;;;;9.07;5.05;;;16.60;99.90;;;;;;5052756;28;20056;-86
2021/08/18 01:41:01;;;;;;;11.70;4.95;;;16.60;99.90;;;;;;5043716;28;20056;-87
2021/08/18 01:43:29;;;;;;;11.50;4.85;;;16.60;99.90;;;;;;5063727;28;20044;-88
2021/08/18 01:45:56;;;;;;;13.70;5.28;;;16.60;99.90;;;;;;5047234;28;20052;-87
2021/08/18 01:48:29;;;;;;;9.98;4.32;;;16.60;99.90;;;;;;5046057;28;20049;-87
2021/08/18 01:50:59;;;;;;;14.00;4.88;;;16.60;99.90;;;;;;5066214;28;20044;-88
2021/08/18 01:53:33;;;;;;;15.20;4.63;;;16.60;99.90;;;;;;5044750;28;20046;-87
2021/08/18 01:56:03;;;;;;;11.73;5.03;;;16.60;99.90;;;;;;5074580;28;20049;-86
2021/08/18 01:58:36;;;;;;;10.13;4.60;;;16.60;99.90;;;;;;5063794;28;20047;-87
2021/08/18 02:01:06;;;;;;;14.43;4.88;;;16.60;99.90;;;;;;5052699;28;20044;-85
2021/08/18 02:03:37;;;;;;;9.50;4.32;;;16.60;99.90;;;;;;5064924;28;20048;-86
2021/08/18 02:06:07;;;;;;;10.10;5.10;;;16.60;99.90;;;;;;5062826;28;20053;-87
2021/08/18 02:08:39;;;;;;;9.27;4.43;;;16.60;99.90;;;;;;5053870;28;20799;-88
2021/08/18 02:11:07;;;;;;;15.10;5.05;;;16.60;99.90;;;;;;5057786;28;20049;-89
2021/08/18 02:13:36;;;;;;;11.82;5.20;;;16.50;99.90;;;;;;5062282;28;20049;-88
2021/08/18 02:16:07;;;;;;;14.37;5.40;;;16.50;99.90;;;;;;5062687;28;20060;-88
2021/08/18 02:18:35;;;;;;;10.13;4.78;;;16.50;99.90;;;;;;5046921;28;20053;-86
2021/08/18 02:21:03;;;;;;;11.90;5.43;;;16.50;99.90;;;;;;5062670;28;20484;-86
2021/08/18 02:23:31;;;;;;;12.70;5.28;;;16.50;99.90;;;;;;5063703;28;20480;-86
2021/08/18 02:25:59;;;;;;;10.05;5.35;;;16.50;99.90;;;;;;5059680;28;20034;-86
2021/08/18 02:28:28;;;;;;;12.70;6.15;;;16.40;99.90;;;;;;5062955;28;20044;-88
2021/08/18 02:30:56;;;;;;;12.10;5.43;;;16.40;99.90;;;;;;5057521;28;20084;-87
2021/08/18 02:33:26;;;;;;;11.40;5.03;;;16.40;99.90;;;;;;5046108;28;20049;-88
2021/08/18 02:35:54;;;;;;;11.43;5.13;;;16.40;99.90;;;;;;5059431;28;20045;-89
2021/08/18 02:38:22;;;;;;;11.63;4.82;;;16.40;99.90;;;;;;5053295;28;20491;-85
2021/08/18 02:40:52;;;;;;;13.85;6.72;;;16.40;99.90;;;;;;5063454;28;20500;-87
2021/08/18 02:43:19;;;;;;;14.10;6.13;;;16.40;99.90;;;;;;5066279;28;20055;-87
2021/08/18 02:45:48;;;;;;;16.92;5.80;;;16.40;99.90;;;;;;5064711;28;20055;-87
2021/08/18 02:48:16;;;;;;;13.43;6.55;;;16.40;99.90;;;;;;5063365;28;20040;-86
2021/08/18 02:50:45;;;;;;;12.13;6.68;;;16.40;99.90;;;;;;5064490;28;20049;-88
2021/08/18 02:53:17;;;;;;;11.07;5.93;;;16.30;99.90;;;;;;5060256;28;20057;-86
2021/08/18 02:55:45;;;;;;;12.23;6.20;;;16.40;99.90;;;;;;5064395;28;20052;-88
2021/08/18 02:58:15;;;;;;;13.93;5.53;;;16.30;99.90;;;;;;5062664;28;20045;-89
2021/08/18 03:00:44;;;;;;;12.20;5.75;;;16.30;99.90;;;;;;5044803;28;20048;-86
2021/08/18 03:03:14;;;;;;;14.52;6.18;;;16.30;99.90;;;;;;5062882;28;20053;-86
2021/08/18 03:05:50;;;;;;;13.50;6.30;;;16.30;99.90;;;;;;5029629;28;20505;-89
2021/08/18 03:08:18;;;;;;;13.02;6.07;;;16.30;99.90;;;;;;5068051;28;20053;-88
2021/08/18 03:10:49;;;;;;;16.60;7.35;;;16.30;99.90;;;;;;5049749;28;20057;-87
2021/08/18 03:13:19;;;;;;;11.88;6.00;;;16.30;99.90;;;;;;5062265;28;20045;-88
2021/08/18 03:15:49;;;;;;;9.93;5.55;;;16.30;99.90;;;;;;5062326;28;20064;-86
2021/08/18 03:18:19;;;;;;;10.93;5.38;;;16.30;99.90;;;;;;5040712;28;20042;-88
2021/08/18 03:20:47;;;;;;;11.95;6.10;;;16.30;99.90;;;;;;5064448;28;20049;-88
2021/08/18 03:23:19;;;;;;;11.32;6.22;;;16.30;99.90;;;;;;5072939;28;20049;-89
2021/08/18 03:25:48;;;;;;;12.73;5.88;;;16.30;99.90;;;;;;5044269;28;20060;-90
2021/08/18 03:28:17;;;;;;;10.55;5.30;;;16.30;99.90;;;;;;5062320;28;20802;-87
2021/08/18 03:30:45;;;;;;;13.93;5.38;;;16.20;99.90;;;;;;5027913;28;20052;-91
2021/08/18 03:33:14;;;;;;;11.75;6.53;;;16.30;99.90;;;;;;5044654;28;20047;-89
2021/08/18 03:35:42;;;;;;;12.75;5.63;;;16.20;99.90;;;;;;5061668;28;20068;-89
2021/08/18 03:38:16;;;;;;;13.85;5.35;;;16.20;99.90;;;;;;5050224;28;20433;-88
2021/08/18 03:40:46;;;;;;;12.48;5.70;;;16.30;99.90;;;;;;5058078;28;20053;-89
2021/08/18 03:43:17;;;;;;;18.90;7.07;;;16.30;99.90;;;;;;5058468;28;20056;-87
2021/08/18 03:45:46;;;;;;;14.52;6.28;;;16.20;99.90;;;;;;5060858;28;20064;-87
2021/08/18 03:48:14;;;;;;;11.15;5.78;;;16.20;99.90;;;;;;5059292;28;20049;-88
2021/08/18 03:50:42;;;;;;;10.68;5.65;;;16.20;99.90;;;;;;5062098;28;20057;-88
2021/08/18 03:53:10;;;;;;;13.05;5.97;;;16.20;99.90;;;;;;5029175;28;20053;-88
2021/08/18 03:55:40;;;;;;;8.82;4.97;;;16.20;99.90;;;;;;5057192;28;20044;-88
2021/08/18 03:58:08;;;;;;;13.75;6.30;;;16.20;99.90;;;;;;5051776;28;20056;-87
2021/08/18 04:00:37;;;;;;;13.65;7.28;;;16.10;99.90;;;;;;5043885;28;20068;-88
2021/08/18 04:03:05;;;;;;;16.48;6.10;;;16.20;99.90;;;;;;5042567;28;20060;-89
2021/08/18 04:05:34;;;;;;;15.25;6.28;;;16.20;99.90;;;;;;5060126;28;20053;-86
2021/08/18 04:08:06;;;;;;;12.30;6.45;;;16.10;99.90;;;;;;5062585;28;20048;-87
2021/08/18 04:10:36;;;;;;;15.35;6.57;;;16.10;99.90;;;;;;5042282;28;20516;-90
2021/08/18 04:13:10;;;;;;;12.70;6.50;;;16.20;99.90;;;;;;5059208;28;20053;-91
2021/08/18 04:15:42;;;;;;;8.35;4.60;;;16.20;99.90;;;;;;5062022;28;20064;-91
2021/08/18 04:18:12;;;;;;;12.57;6.38;;;16.20;99.90;;;;;;5062657;28;20136;-89
2021/08/18 04:20:40;;;;;;;10.25;5.28;;;16.20;99.90;;;;;;5057159;28;20049;-88
2021/08/18 04:23:08;;;;;;;13.43;5.93;;;16.20;99.90;;;;;;5060066;28;20045;-90
2021/08/18 04:25:40;;;;;;;12.75;6.00;;;16.20;99.90;;;;;;5058938;28;20045;-91
2021/08/18 04:28:09;;;;;;;13.27;6.45;;;15.80;99.90;;;;;;5075701;28;20049;-88
2021/08/18 04:30:41;;;;;;;13.38;6.30;;;16.20;99.90;;;;;;5062687;28;20049;-88
2021/08/18 04:33:10;;;;;;;12.65;5.85;;;16.20;99.90;;;;;;5064444;28;20061;-88
2021/08/18 04:35:44;;;;;;;15.70;8.25;;;16.20;99.90;;;;;;5061266;28;20060;-87
2021/08/18 04:38:14;;;;;;;13.50;7.53;;;16.20;99.90;;;;;;5062416;28;20415;-88
2021/08/18 04:40:44;;;;;;;17.17;9.63;;;16.20;99.90;;;;;;5055836;28;20068;-88
2021/08/18 04:43:16;;;;;;;18.10;7.18;;;16.20;99.90;;;;;;5077933;28;20053;-87
2021/08/18 04:45:45;;;;;;;18.23;6.50;;;16.20;99.90;;;;;;5059898;28;20041;-86
2021/08/18 04:48:14;;;;;;;15.98;6.25;;;16.20;99.90;;;;;;5055142;28;20057;-87
2021/08/18 04:50:45;;;;;;;;;;;16.20;99.90;;;;;;5061899;28;20045;-88
2021/08/18 04:53:24;;;;;;;13.50;6.07;;;16.20;99.90;;;;;;5053050;28;19920;-87
2021/08/18 04:55:56;;;;;;;11.10;5.93;;;16.20;99.90;;;;;;5066971;28;20059;-88
2021/08/18 04:58:40;;;;;;;10.50;5.35;;;16.20;99.90;;;;;;5060296;28;20492;-88
2021/08/18 05:01:16;;;;;;;12.35;5.53;;;16.10;99.90;;;;;;5052660;28;20055;-88
2021/08/18 05:03:50;;;;;;;14.13;7.72;;;16.10;99.90;;;;;;5068068;28;20484;-87
2021/08/18 05:06:27;;;;;;;11.85;5.68;;;16.10;99.90;;;;;;5060323;28;20044;-87
2021/08/18 05:09:02;;;;;;;12.90;5.43;;;16.10;99.90;;;;;;5062385;28;20236;-88
2021/08/18 05:11:36;;;;;;;14.27;5.30;;;16.20;99.90;;;;;;5062163;28;20052;-90
2021/08/18 05:14:10;;;;;;;14.50;7.28;;;16.20;99.90;;;;;;5063326;28;20052;-87
2021/08/18 05:16:43;;;;;;;12.30;5.88;;;16.20;99.90;;;;;;5045633;28;20060;-86
2021/08/18 05:19:15;;;;;;;10.13;5.68;;;16.20;99.90;;;;;;5061646;28;20053;-88
2021/08/18 05:21:46;;;;;;;;;;;16.20;99.90;;;;;;5034321;28;20048;-89
2021/08/18 05:24:18;;;;;;;13.85;6.85;;;16.20;99.90;;;;;;5072871;28;19935;-89
2021/08/18 05:27:09;;;;;;;15.25;6.40;;;16.20;99.90;;;;;;5028990;28;20064;-88
2021/08/18 05:29:39;;;;;;;10.70;5.85;;;16.20;99.90;;;;;;5066431;28;20044;-90
2021/08/18 05:32:09;;;;;;;8.63;4.90;;;16.20;99.90;;;;;;5042241;28;20056;-88
2021/08/18 05:34:38;;;;;;;12.10;5.93;;;16.20;99.90;;;;;;5026067;28;20050;-85
2021/08/18 05:37:09;;;;;;;10.38;5.38;;;16.20;99.90;;;;;;5063048;28;20041;-88
2021/08/18 05:39:45;;;;;;;13.57;5.90;;;16.30;99.90;;;;;;5077038;28;20051;-88
2021/08/18 05:42:17;;;;;;;11.05;5.47;;;16.30;99.90;;;;;;5056328;28;20048;-88
2021/08/18 05:44:59;;;;;;;10.65;5.43;;;16.30;99.90;;;;;;5052533;28;20053;-88
2021/08/18 05:47:35;;;;;;;23.83;8.02;;;16.30;99.90;;;;;;5046312;28;20060;-87
2021/08/18 05:50:10;;;;;;;9.38;5.18;;;16.30;99.90;;;;;;5056859;28;20053;-87
2021/08/18 05:52:43;;;;;;;13.55;6.22;;;16.40;99.90;;;;;;5041838;28;20061;-87
2021/08/18 05:55:21;;;;;;;12.45;5.20;;;16.30;99.90;;;;;;5057929;28;20045;-87
2021/08/18 05:57:51;;;;;;;9.18;5.03;;;16.40;99.90;;;;;;5064303;28;20056;-87
2021/08/18 06:00:23;;;;;;;11.32;4.25;;;16.40;99.90;;;;;;5061872;28;20064;-86
2021/08/18 06:03:01;;;;;;;12.25;6.00;;;16.40;99.90;;;;;;5062250;28;20207;-87
2021/08/18 06:05:30;;;;;;;8.77;5.28;;;16.40;99.90;;;;;;5043004;28;20064;-87
2021/08/18 06:11:05;;;;;;;10.70;5.30;;;16.50;99.90;;;;;;5024674;28;20050;-88
2021/08/18 06:13:36;;;;;;;12.15;5.53;;;16.50;99.90;;;;;;5023051;28;20053;-89
2021/08/18 06:16:10;;;;;;;8.82;4.97;;;16.50;99.90;;;;;;5044306;23;20061;31
2021/08/18 06:18:44;;;;;;;12.00;4.93;;;16.50;99.90;;;;;;4951716;29;20051;-82
2021/08/18 06:21:15;;;;;;;10.20;4.80;;;16.30;99.90;;;;;;4970585;29;20051;-81
2021/08/18 06:23:47;;;;;;;12.77;4.75;;;16.60;99.90;;;;;;4970499;29;20057;-82
2021/08/18 06:26:16;;;;;;;7.90;4.40;;;16.60;99.90;;;;;;4984973;28;20054;-82
2021/08/18 06:28:46;;;;;;;10.15;5.05;;;16.60;99.90;;;;;;4969727;28;20070;-82
2021/08/18 06:31:17;;;;;;;8.98;4.30;;;16.70;99.90;;;;;;4971130;28;20043;-82
2021/08/18 06:33:49;;;;;;;11.40;4.25;;;16.70;99.90;;;;;;4969504;28;20053;-82
2021/08/18 06:36:19;;;;;;;9.45;4.93;;;16.80;99.90;;;;;;4970281;28;20265;-82
2021/08/18 06:38:47;;;;;;;8.25;4.28;;;17.00;99.90;;;;;;4973795;28;20438;-82
2021/08/18 06:41:16;;;;;;;9.30;4.68;;;16.90;99.90;;;;;;4960844;29;20051;-81
2021/08/18 06:43:45;;;;;;;7.35;3.80;;;17.00;99.90;;;;;;4969789;28;20044;-82
2021/08/18 06:46:14;;;;;;;9.23;3.45;;;17.10;99.90;;;;;;4967685;28;20061;-82
2021/08/18 06:48:42;;;;;;;10.30;4.15;;;17.10;99.90;;;;;;4967882;28;20059;-83
2021/08/18 06:51:28;;;;;;;8.80;4.25;;;17.20;99.90;;;;;;4968728;28;20318;-82
2021/08/18 06:53:56;;;;;;;10.18;4.50;;;17.20;99.90;;;;;;4949414;29;20052;-82
2021/08/18 06:56:25;;;;;;;8.73;4.00;;;17.30;99.90;;;;;;4968550;28;20047;-82
2021/08/18 06:58:57;;;;;;;6.75;3.70;;;17.30;99.90;;;;;;4969650;28;20059;-83
2021/08/18 07:01:25;;;;;;;9.75;4.05;;;17.40;99.90;;;;;;4967929;28;20314;-82
2021/08/18 07:03:54;;;;;;;6.43;4.00;;;17.40;99.90;;;;;;4968770;28;20062;-82
2021/08/18 07:06:22;;;;;;;9.45;4.00;;;17.40;99.90;;;;;;4967126;29;20484;-82
2021/08/18 07:08:50;;;;;;;7.85;3.53;;;17.60;99.90;;;;;;4958126;28;20052;-83
2021/08/18 07:11:19;;;;;;;6.90;3.63;;;17.50;99.90;;;;;;4960066;29;20044;-83
2021/08/18 07:13:51;;;;;;;9.55;3.72;;;17.50;99.90;;;;;;4964430;28;20047;-82
2021/08/18 07:16:19;;;;;;;11.45;3.83;;;17.50;99.90;;;;;;4963884;28;20058;-82
2021/08/18 07:18:49;;;;;;;9.00;2.95;;;17.50;99.90;;;;;;4964675;28;20060;-83
2021/08/18 07:21:20;;;;;;;5.00;3.22;;;17.50;99.90;;;;;;4949013;29;20056;-82
2021/08/18 07:23:50;;;;;;;10.13;4.97;;;17.50;99.90;;;;;;4950786;29;20059;-82
2021/08/18 07:26:18;;;;;;;9.25;3.40;;;17.50;99.90;;;;;;4952115;29;20046;-82
2021/08/18 07:28:49;;;;;;;6.03;3.25;;;17.50;99.90;;;;;;4948819;29;20059;-82
2021/08/18 07:31:17;;;;;;;7.13;3.00;;;17.50;99.90;;;;;;4948671;29;20052;-82
2021/08/18 07:33:50;;;;;;;6.30;3.30;;;17.50;99.90;;;;;;4960618;28;20040;-80
2021/08/18 07:37:00;;;;;;;7.68;3.85;;;17.50;99.90;;;;;;4960612;28;20063;-82
2021/08/18 07:39:42;;;;;;;6.65;3.22;;;17.60;99.90;;;;;;4934438;29;20054;-82
2021/08/18 07:42:11;;;;;;;7.15;3.55;;;17.60;99.90;;;;;;4948684;29;20051;-83
2021/08/18 07:44:42;;;;;;;7.43;3.78;;;17.70;99.90;;;;;;4964457;29;20048;-83
2021/08/18 07:47:15;;;;;;;7.05;3.38;;;17.80;99.90;;;;;;4949244;29;20480;-83
2021/08/18 07:49:44;;;;;;;6.63;3.40;;;17.80;99.90;;;;;;4964016;29;20055;-82
2021/08/18 07:52:14;;;;;;;6.57;3.33;;;17.80;99.90;;;;;;4961049;28;20052;-83
2021/08/18 07:54:46;;;;;;;5.43;2.95;;;17.90;99.90;;;;;;4955191;29;20066;-82
2021/08/18 07:57:16;;;;;;;8.23;4.45;;;17.70;99.90;;;;;;4948738;29;20043;-83
2021/08/18 07:59:50;;;;;;;;;;;18.00;99.90;;;;;;4955015;28;20052;-83
2021/08/18 08:02:20;;;;;;;5.40;2.97;;;18.20;99.90;;;;;;4963989;28;19926;-83
2021/08/18 08:04:48;;;;;;;9.95;3.65;;;18.10;99.90;;;;;;4933253;28;20056;-82
2021/08/18 08:07:18;;;;;;;8.20;3.03;;;18.20;99.90;;;;;;4947511;29;20063;-83
2021/08/18 08:09:51;;;;;;;4.70;2.92;;;18.20;99.90;;;;;;4948209;28;20052;-83
2021/08/18 08:12:20;;;;;;;7.93;3.70;;;18.20;99.90;;;;;;4947867;29;20060;-82
2021/08/18 08:14:49;;;;;;;6.05;3.28;;;18.20;99.90;;;;;;4952284;28;20273;-83
2021/08/18 08:17:17;;;;;;;6.90;2.45;;;18.10;99.90;;;;;;4947234;29;20224;-83
2021/08/18 08:19:46;;;;;;;6.45;2.92;;;18.10;99.90;;;;;;4948818;29;20077;-82
2021/08/18 08:22:17;;;;;;;6.10;2.90;;;18.10;99.90;;;;;;4951702;29;20054;-82
2021/08/18 08:24:45;;;;;;;;;;;18.10;99.90;;;;;;4947913;28;20059;-83
2021/08/18 08:27:16;;;;;;;5.85;2.72;;;18.70;99.90;;;;;;4962968;29;19927;-83
2021/08/18 08:29:46;;;;;;;4.88;2.80;;;18.10;99.90;;;;;;4963555;29;20050;-83
2021/08/18 08:32:15;;;;;;;7.38;2.60;;;18.10;99.90;;;;;;4948497;29;20066;-83
2021/08/18 08:34:45;;;;;;;6.57;2.47;;;18.20;99.90;;;;;;4962876;29;20059;-83
2021/08/18 08:37:18;;;;;;;7.03;2.80;;;18.20;99.90;;;;;;4940876;29;20070;-82
2021/08/18 08:39:48;;;;;;;7.30;2.75;;;18.20;99.90;;;;;;4954590;29;20060;-83
2021/08/18 08:42:17;;;;;;;4.82;2.58;;;18.20;99.90;;;;;;4946995;29;20039;-83
2021/08/18 08:44:50;;;;;;;6.18;3.15;;;18.30;99.90;;;;;;4961866;28;20493;-83
2021/08/18 08:47:22;;;;;;;6.00;2.60;;;18.30;99.90;;;;;;4961708;28;20047;-83
2021/08/18 08:49:50;;;;;;;6.32;2.70;;;18.30;99.90;;;;;;4949966;29;20059;-83
2021/08/18 08:52:18;;;;;;;3.60;2.15;;;18.40;99.90;;;;;;4935345;29;20058;-82
2021/08/18 08:54:48;;;;;;;7.15;3.00;;;18.40;99.90;;;;;;4931203;29;20055;-83
2021/08/18 08:57:16;;;;;;;3.97;2.33;;;18.50;99.90;;;;;;4947526;29;20039;-83
2021/08/18 08:59:47;;;;;;;7.82;2.30;;;18.60;99.90;;;;;;4948133;29;20417;-83
2021/08/18 09:02:18;;;;;;;6.13;2.45;;;18.70;99.90;;;;;;4962951;29;20066;-82
2021/08/18 09:04:51;;;;;;;3.42;2.17;;;18.70;99.90;;;;;;4948061;29;20055;-82
2021/08/18 09:07:23;;;;;;;4.43;1.83;;;18.70;99.90;;;;;;4948639;28;20058;-83
2021/08/18 09:09:58;;;;;;;5.47;2.40;;;18.80;99.90;;;;;;4964555;28;20036;-83
2021/08/18 09:12:36;;;;;;;4.47;2.35;;;18.70;99.90;;;;;;4948910;28;20047;-83
2021/08/18 09:15:19;;;;;;;3.75;2.03;;;18.80;99.90;;;;;;4938417;29;20044;-83
2021/08/18 09:17:52;;;;;;;3.97;1.85;;;18.80;99.90;;;;;;4966008;29;20090;-83
2021/08/18 09:20:29;;;;;;;4.10;1.83;;;18.80;99.90;;;;;;4950685;29;20039;-83
2021/08/18 09:23:03;;;;;;;8.82;1.98;;;18.80;99.90;;;;;;4965212;28;20060;-82
2021/08/18 09:25:39;;;;;;;3.50;2.38;;;18.80;99.90;;;;;;4966014;28;20051;-83
2021/08/18 09:28:08;;;;;;;4.55;2.42;;;18.80;99.90;;;;;;4947199;29;20052;-83
2021/08/18 09:30:40;;;;;;;7.68;2.83;;;18.70;99.90;;;;;;4954343;29;20039;-83
2021/08/18 09:33:13;;;;;;;3.03;1.85;;;18.70;99.90;;;;;;4950494;29;20056;-83
2021/08/18 09:35:42;;;;;;;3.38;1.67;;;18.70;99.90;;;;;;4949720;29;20065;-83
2021/08/18 09:38:15;;;;;;;2.25;1.50;;;18.80;99.90;;;;;;4958286;28;20052;-83
2021/08/18 09:40:50;;;;;;;5.18;1.80;;;18.80;99.90;;;;;;4953248;28;20058;-83
2021/08/18 09:43:26;;;;;;;5.32;1.60;;;18.90;99.90;;;;;;4950115;29;20224;-83
2021/08/18 09:46:01;;;;;;;6.20;2.22;;;18.90;99.90;;;;;;4965246;28;20406;-82
2021/08/18 09:48:35;;;;;;;3.65;1.92;;;19.00;99.90;;;;;;4964642;29;20056;-83
2021/08/18 09:51:06;;;;;;;3.83;1.50;;;18.00;99.90;;;;;;4950418;29;20056;-83
2021/08/18 09:53:39;;;;;;;2.95;1.67;;;19.10;99.90;;;;;;4949370;29;20046;-82
2021/08/18 09:56:09;;;;;;;7.00;2.15;;;19.10;99.90;;;;;;4964197;28;20036;-82
2021/08/18 09:58:50;;;;;;;3.42;1.55;;;19.20;99.90;;;;;;4949753;28;20219;-83
2021/08/18 10:01:20;;;;;;;2.97;1.35;;;18.20;99.90;;;;;;4965011;28;20056;-82
2021/08/18 10:03:54;;;;;;;2.20;1.33;;;19.40;99.90;;;;;;4949004;29;20051;-82
2021/08/18 10:06:22;;;;;;;2.13;1.30;;;19.40;99.90;;;;;;4950436;29;20047;-83
2021/08/18 10:08:53;;;;;;;4.20;1.83;;;19.50;99.90;;;;;;4952521;28;20059;-83
2021/08/18 10:11:22;;;;;;;5.57;2.17;;;19.60;99.90;;;;;;4946152;29;20040;-83
2021/08/18 10:13:53;;;;;;;2.03;1.00;;;19.40;99.90;;;;;;4948727;29;20051;-82
2021/08/18 10:16:22;;;;;;;2.72;1.33;;;19.70;99.90;;;;;;4952568;29;20080;-83
2021/08/18 10:18:53;;;;;;;3.83;1.88;;;19.70;99.90;;;;;;4972703;28;20051;-82
2021/08/18 10:21:25;;;;;;;;;;;19.80;99.90;;;;;;4952767;28;20059;-83
2021/08/18 10:23:59;;;;;;;4.32;1.67;;;19.80;99.90;;;;;;4963895;28;19926;-82
2021/08/18 10:26:34;;;;;;;2.55;1.40;;;19.80;99.90;;;;;;4949630;29;20219;-83
2021/08/18 10:29:19;;;;;;;3.22;1.55;;;20.00;99.90;;;;;;4963364;29;20056;-82
2021/08/18 10:31:47;;;;;;;3.08;1.50;;;20.00;99.90;;;;;;4948039;29;20556;-83
2021/08/18 10:34:23;;;;;;;2.67;1.63;;;20.10;99.90;;;;;;4964342;28;20071;-83
2021/08/18 10:37:01;;;;;;;2.13;1.20;;;20.20;99.90;;;;;;4965555;28;20058;-84
2021/08/18 10:39:33;;;;;;;1.65;0.90;;;20.30;99.90;;;;;;4948584;29;20054;-83
2021/08/18 10:42:12;;;;;;;2.40;1.20;;;20.30;99.90;;;;;;4962149;28;20417;-82
2021/08/18 10:44:41;;;;;;;2.97;1.10;;;20.40;99.90;;;;;;4963614;28;20224;-83
2021/08/18 10:47:15;;;;;;;3.55;1.50;;;20.50;99.90;;;;;;4947560;29;20047;-83
2021/08/18 10:49:44;;;;;;;3.65;1.30;;;20.60;99.90;;;;;;4962301;28;20063;-83
2021/08/18 10:52:36;;;;;;;3.20;1.38;;;20.60;99.90;;;;;;4961854;28;20493;-81
2021/08/18 10:55:15;;;;;;;2.43;1.40;;;20.60;99.90;;;;;;4950564;28;20063;-83
2021/08/18 10:57:52;;;;;;;1.85;1.00;;;20.70;99.90;;;;;;4955068;29;20053;-82
2021/08/18 11:00:22;;;;;;;5.20;1.65;;;20.80;99.90;;;;;;4945974;28;20056;-84
2021/08/18 11:02:59;;;;;;;4.18;2.38;;;20.90;99.90;;;;;;4947485;29;20195;-82
2021/08/18 11:05:38;;;;;;;2.88;1.60;;;21.00;99.90;;;;;;4947505;29;20051;-82
2021/08/18 11:08:20;;;;;;;2.63;1.50;;;21.20;99.90;;;;;;4949581;29;20052;-82
2021/08/18 11:10:53;;;;;;;3.13;1.20;;;21.30;99.90;;;;;;4955542;28;20066;-83
2021/08/18 11:13:41;;;;;;;3.20;1.40;;;21.30;99.90;;;;;;4947128;29;20791;-83
2021/08/18 11:16:29;;;;;;;4.10;1.30;;;21.40;99.90;;;;;;4944404;29;20051;-83
2021/08/18 11:19:06;;;;;;;5.28;1.50;;;21.50;99.90;;;;;;4961649;28;20047;-83
2021/08/18 11:21:41;;;;;;;2.00;1.10;;;21.60;99.90;;;;;;4944855;29;20048;-83
2021/08/18 11:24:12;;;;;;;3.28;1.30;;;21.70;99.90;;;;;;4944408;29;20055;-83
2021/08/18 11:26:43;;;;;;;3.42;1.42;;;21.90;99.90;;;;;;4946160;29;20043;-83
2021/08/18 11:29:20;;;;;;;1.77;1.17;;;22.00;99.90;;;;;;4945922;29;20052;-83
2021/08/18 11:31:55;;;;;;;4.10;1.63;;;22.10;99.90;;;;;;4961000;29;20053;-83
2021/08/18 11:34:31;;;;;;;1.83;1.17;;;22.30;99.90;;;;;;4961067;28;20047;-83
2021/08/18 11:37:08;;;;;;;4.30;1.27;;;22.50;99.90;;;;;;4947924;29;20039;-82
2021/08/18 11:39:45;;;;;;;3.15;1.35;;;22.60;99.90;;;;;;4946011;29;20058;-82
2021/08/18 11:42:20;;;;;;;3.67;1.45;;;22.50;99.90;;;;;;4946013;29;20051;-81
2021/08/18 11:45:04;;;;;;;2.63;1.42;;;22.60;99.90;;;;;;4962083;29;20051;-82
2021/08/18 11:47:33;;;;;;;2.35;1.45;;;22.50;99.70;;;;;;4946289;29;20052;-82
2021/08/18 11:50:02;;;;;;;3.85;1.00;;;22.50;98.90;;;;;;4948888;29;20048;-82
2021/08/18 11:52:30;;;;;;;2.72;1.38;;;22.40;99.00;;;;;;4932976;29;20051;-83
2021/08/18 11:55:02;;;;;;;3.65;1.25;;;22.30;99.60;;;;;;4946614;29;20062;-83
2021/08/18 11:57:30;;;;;;;;;;;22.30;99.30;;;;;;4946597;29;20070;-81
2021/08/18 12:00:00;;;;;;;6.88;2.05;;;22.10;99.30;;;;;;4961877;29;19922;-83
2021/08/18 12:02:35;;;;;;;2.50;1.30;;;22.30;99.50;;;;;;4928887;29;20062;-83
2021/08/18 12:05:05;;;;;;;4.20;1.05;;;22.30;99.30;;;;;;4946461;29;20047;-83
2021/08/18 12:07:35;;;;;;;5.97;1.58;;;22.30;99.40;;;;;;4952674;29;20065;-83
2021/08/18 12:10:18;;;;;;;4.80;1.70;;;22.30;99.40;;;;;;4968998;28;20055;-82
2021/08/18 12:13:01;;;;;;;2.47;1.27;;;22.30;99.20;;;;;;4945841;29;20059;-82
2021/08/18 12:15:33;;;;;;;2.58;1.05;;;22.20;99.50;;;;;;4961088;29;20054;-82
2021/08/18 12:18:01;;;;;;;6.03;1.52;;;22.20;99.60;;;;;;4946453;29;20043;-83
2021/08/18 12:20:33;;;;;;;3.78;1.63;;;22.10;99.90;;;;;;4948551;29;20040;-83
2021/08/18 12:23:03;;;;;;;4.57;1.67;;;22.00;99.70;;;;;;4963408;29;20051;-82
2021/08/18 12:25:35;;;;;;;2.55;1.38;;;22.00;99.80;;;;;;4961161;28;20059;-83
2021/08/18 12:28:09;;;;;;;3.92;1.42;;;22.10;99.70;;;;;;4944320;29;20250;-83
2021/08/18 12:30:58;;;;;;;10.65;1.88;;;22.20;99.50;;;;;;4944658;29;20065;-81
2021/08/18 12:33:28;;;;;;;5.45;1.75;;;22.40;98.90;;;;;;4960234;29;20340;-83
2021/08/18 12:36:12;;;;;;;3.30;1.38;;;22.60;98.20;;;;;;4955124;28;20061;-83
2021/08/18 12:38:53;;;;;;;4.20;1.23;;;22.80;98.10;;;;;;4952804;29;20050;-82
2021/08/18 12:41:30;;;;;;;4.45;1.65;;;23.00;98.40;;;;;;4959930;28;20051;-82
2021/08/18 12:44:08;;;;;;;2.72;1.35;;;23.20;98.20;;;;;;4945806;29;20055;-80
2021/08/18 12:46:39;;;;;;;4.50;2.13;;;23.30;97.90;;;;;;4961734;28;20055;-81
2021/08/18 12:49:26;;;;;;;7.90;2.60;;;23.40;97.50;;;;;;4951332;29;20048;-82
2021/08/18 12:51:57;;;;;;;7.72;2.40;;;23.50;97.40;;;;;;4947177;29;20734;-82
2021/08/18 12:54:27;;;;;;;6.18;2.45;;;23.50;97.40;;;;;;4948696;29;20043;-82
2021/08/18 12:56:55;;;;;;;4.47;2.05;;;23.60;97.40;;;;;;4947331;29;20059;-83
2021/08/18 12:59:25;;;;;;;4.40;1.85;;;23.70;97.60;;;;;;4951152;29;20051;-82
2021/08/18 13:01:55;;;;;;;5.82;2.10;;;23.80;96.80;;;;;;4949541;29;20051;-82
2021/08/18 13:04:23;;;;;;;5.50;2.15;;;23.90;96.70;;;;;;4966186;28;20062;-82
2021/08/18 13:06:51;;;;;;;3.97;1.88;;;24.00;96.50;;;;;;4969323;28;20504;-82
2021/08/18 13:09:21;;;;;;;4.43;1.80;;;23.90;96.30;;;;;;4966535;28;20056;-82
2021/08/18 13:11:49;;;;;;;7.68;2.40;;;23.90;96.30;;;;;;4948717;29;20048;-83